Time;durP1;ratioP1;P1;durP2;ratioP2;P2;SDS_P1;SDS_P2;PMS_P1;PMS_P2;Temp;Humidity;BMP_temperature;BMP_pressure;BME280_temperature;BME280_humidity;BME280_pressure;Samples;Min_cycle;Max_cycle;Signal;HPM_P1;HPM_P2
2022/12/03 00:01:59;;;;;;;27.02;14.68;;;2.80;99.90;;;;;;4160107;28;20117;-71
2022/12/03 00:04:00;;;;;;;23.15;13.48;;;2.80;99.90;;;;;;4145216;28;20064;-69
2022/12/03 00:06:01;;;;;;;23.73;13.48;;;2.80;99.90;;;;;;4148777;28;20068;-70
2022/12/03 00:08:01;;;;;;;21.65;12.95;;;2.80;99.90;;;;;;4147609;28;20481;-70
2022/12/03 00:10:04;;;;;;;22.70;12.77;;;2.80;99.90;;;;;;4145603;28;20504;-72
2022/12/03 00:12:04;;;;;;;22.75;12.93;;;2.90;99.90;;;;;;4149672;28;20515;-70
2022/12/03 00:14:05;;;;;;;20.52;12.02;;;2.80;99.90;;;;;;4148255;28;20062;-71
2022/12/03 00:16:06;;;;;;;24.17;12.75;;;2.80;99.90;;;;;;4146670;28;20519;-70
2022/12/03 00:18:06;;;;;;;20.25;12.32;;;2.80;99.90;;;;;;4150633;28;20121;-70
2022/12/03 00:20:07;;;;;;;25.60;13.85;;;2.90;99.90;;;;;;4146274;28;20068;-72
2022/12/03 00:22:08;;;;;;;24.02;12.45;;;2.90;99.90;;;;;;4148294;28;20088;-69
2022/12/03 00:24:09;;;;;;;22.58;12.10;;;2.90;99.90;;;;;;4150969;28;20026;-70
2022/12/03 00:26:09;;;;;;;21.20;12.30;;;2.90;99.90;;;;;;4144560;28;20115;-70
2022/12/03 00:28:10;;;;;;;22.65;13.05;;;2.80;99.90;;;;;;4145222;28;20117;-70
2022/12/03 00:30:11;;;;;;;24.77;12.73;;;2.80;99.90;;;;;;4143136;28;20034;-71
2022/12/03 00:32:13;;;;;;;25.27;13.35;;;2.80;99.90;;;;;;4148300;28;20038;-70
2022/12/03 00:34:13;;;;;;;25.17;13.43;;;2.90;99.90;;;;;;4133207;28;20042;-70
2022/12/03 00:36:14;;;;;;;22.88;12.65;;;2.90;99.90;;;;;;4146222;28;20204;-70
2022/12/03 00:38:14;;;;;;;23.30;12.90;;;2.90;99.90;;;;;;4146566;28;20026;-70
2022/12/03 00:40:15;;;;;;;21.48;12.88;;;2.90;99.90;;;;;;4146361;28;20045;-71
2022/12/03 00:42:15;;;;;;;24.40;13.77;;;2.90;99.90;;;;;;4145355;28;20041;-70
2022/12/03 00:44:16;;;;;;;23.30;13.00;;;2.90;99.90;;;;;;4148150;28;20050;-70
2022/12/03 00:46:17;;;;;;;22.38;12.52;;;2.90;99.90;;;;;;4146858;28;20030;-70
2022/12/03 00:48:17;;;;;;;24.30;14.02;;;3.00;99.90;;;;;;4146092;28;20057;-70
2022/12/03 00:50:18;;;;;;;23.42;13.35;;;2.90;99.90;;;;;;4147556;28;20034;-71
2022/12/03 00:52:18;;;;;;;26.13;13.80;;;2.90;99.90;;;;;;4147110;28;20093;-70
2022/12/03 00:54:19;;;;;;;23.85;13.27;;;2.90;99.90;;;;;;4147111;28;20038;-70
2022/12/03 00:56:19;;;;;;;25.10;13.13;;;2.90;99.90;;;;;;4145391;28;20030;-70
2022/12/03 00:58:20;;;;;;;21.30;12.52;;;2.90;99.90;;;;;;4150639;28;21674;-70
2022/12/03 01:00:23;;;;;;;21.90;12.52;;;3.00;99.90;;;;;;4146453;28;20054;-70
2022/12/03 01:02:24;;;;;;;23.83;13.35;;;3.00;99.90;;;;;;4144424;28;20133;-70
2022/12/03 01:04:24;;;;;;;22.95;13.25;;;3.00;99.90;;;;;;4148110;28;20041;-70
2022/12/03 01:06:25;;;;;;;26.98;15.10;;;3.00;99.90;;;;;;4149806;28;20034;-70
2022/12/03 01:08:25;;;;;;;28.15;15.70;;;3.10;99.90;;;;;;4147627;28;20030;-70
2022/12/03 01:10:26;;;;;;;25.63;14.00;;;3.00;99.90;;;;;;4150553;28;20041;-68
2022/12/03 01:12:26;;;;;;;24.13;13.68;;;3.00;99.90;;;;;;4146682;28;20041;-69
2022/12/03 01:14:27;;;;;;;26.55;14.30;;;3.10;99.90;;;;;;4147385;28;20477;-70
2022/12/03 01:16:27;;;;;;;28.20;15.20;;;3.00;99.90;;;;;;4150492;28;20095;-70
2022/12/03 01:18:28;;;;;;;28.63;15.43;;;3.00;99.90;;;;;;4147778;28;20046;-70
2022/12/03 01:20:29;;;;;;;28.50;15.35;;;3.00;99.90;;;;;;4146443;28;20034;-70
2022/12/03 01:22:29;;;;;;;28.77;16.40;;;3.00;99.90;;;;;;4147506;28;20049;-70
2022/12/03 01:24:30;;;;;;;29.75;16.88;;;3.00;99.90;;;;;;4151547;28;20046;-69
2022/12/03 01:26:30;;;;;;;27.92;15.63;;;2.90;99.90;;;;;;4146573;28;20045;-71
2022/12/03 01:28:31;;;;;;;27.77;14.93;;;2.90;99.90;;;;;;4148672;28;20069;-69
2022/12/03 01:32:15;;;;;;;27.20;15.70;;;2.90;99.90;;;;;;4147255;28;20046;-70
2022/12/03 01:32:52;;;;;;;28.90;16.42;;;2.90;99.90;;;;;;4149041;28;20037;-70
2022/12/03 01:34:54;;;;;;;26.67;14.52;;;2.90;99.90;;;;;;4147600;28;20098;-70
2022/12/03 01:36:55;;;;;;;26.08;13.90;;;2.90;99.90;;;;;;4151725;28;20098;-71
2022/12/03 01:38:55;;;;;;;27.73;15.50;;;2.90;99.90;;;;;;4148051;28;20121;-70
2022/12/03 01:40:56;;;;;;;24.58;14.73;;;2.90;99.90;;;;;;4147830;28;20408;-70
2022/12/03 01:42:56;;;;;;;26.17;14.60;;;2.90;99.90;;;;;;4142296;28;20038;-70
2022/12/03 01:44:59;;;;;;;27.13;15.38;;;3.00;99.90;;;;;;4129063;28;20116;-69
2022/12/03 01:47:00;;;;;;;;;;;3.00;99.90;;;;;;4145536;28;20421;-70
2022/12/03 01:49:01;;;;;;;27.65;14.82;;;3.00;99.90;;;;;;4148484;28;20007;-70
2022/12/03 01:51:02;;;;;;;29.40;15.55;;;2.90;99.90;;;;;;4146025;28;20049;-68
2022/12/03 01:53:03;;;;;;;23.98;14.63;;;3.00;99.90;;;;;;4147269;28;20049;-70
2022/12/03 01:55:12;;;;;;;26.67;15.27;;;2.90;99.90;;;;;;4147788;28;20041;-71
2022/12/03 01:57:20;;;;;;;30.55;17.30;;;3.00;99.90;;;;;;4148589;28;20084;-70
2022/12/03 01:59:33;;;;;;;29.00;16.45;;;3.00;99.90;;;;;;4145393;28;20477;-70
2022/12/03 02:01:33;;;;;;;29.05;15.75;;;3.00;99.90;;;;;;4146236;28;20091;-70
2022/12/03 02:03:35;;;;;;;31.15;17.27;;;3.00;99.90;;;;;;4148632;28;20469;-70
2022/12/03 02:05:37;;;;;;;27.05;15.30;;;3.00;99.90;;;;;;4145012;28;20156;-70
2022/12/03 02:07:37;;;;;;;30.20;16.50;;;3.00;99.90;;;;;;4147515;28;20090;-70
2022/12/03 02:09:38;;;;;;;28.73;16.95;;;3.00;99.90;;;;;;4147571;28;20092;-70
2022/12/03 02:11:47;;;;;;;28.85;15.95;;;3.00;99.90;;;;;;4144593;28;20535;-70
2022/12/03 02:13:51;;;;;;;30.25;16.08;;;3.10;99.90;;;;;;4146842;28;20691;-70
2022/12/03 02:15:52;;;;;;;31.25;16.25;;;3.10;99.90;;;;;;4141573;28;21709;-70
2022/12/03 02:17:52;;;;;;;27.45;14.75;;;3.00;99.90;;;;;;4148162;28;20045;-70
2022/12/03 02:19:54;;;;;;;27.08;15.95;;;3.00;99.90;;;;;;4148795;28;20042;-70
2022/12/03 02:22:07;;;;;;;25.20;14.35;;;3.00;99.90;;;;;;4152648;28;20034;-71
2022/12/03 02:24:30;;;;;;;28.25;15.57;;;3.00;99.90;;;;;;4145561;28;20041;-70
2022/12/03 02:26:31;;;;;;;28.55;15.88;;;3.00;99.90;;;;;;4145318;28;20060;-70
2022/12/03 02:28:32;;;;;;;28.80;16.33;;;3.00;99.90;;;;;;4160723;28;20484;-70
2022/12/03 02:30:33;;;;;;;30.98;16.17;;;3.00;99.90;;;;;;4147973;28;20038;-69
2022/12/03 02:32:34;;;;;;;27.30;15.77;;;3.00;99.90;;;;;;4156607;28;20042;-70
2022/12/03 02:34:41;;;;;;;25.73;14.32;;;3.00;99.90;;;;;;4154533;28;20041;-70
2022/12/03 02:36:41;;;;;;;25.98;15.23;;;3.00;99.90;;;;;;4151525;28;20038;-70
2022/12/03 02:38:44;;;;;;;29.35;16.40;;;3.00;99.90;;;;;;4156455;28;20092;-70
2022/12/03 02:40:47;;;;;;;29.38;17.27;;;3.00;99.90;;;;;;4152910;28;20073;-71
2022/12/03 02:42:51;;;;;;;29.45;16.75;;;3.00;99.90;;;;;;4153799;28;20042;-70
2022/12/03 02:44:52;;;;;;;34.05;17.95;;;2.90;99.90;;;;;;4154696;28;20037;-70
2022/12/03 02:46:53;;;;;;;33.38;17.67;;;2.90;99.90;;;;;;4144300;28;20121;-70
2022/12/03 02:48:53;;;;;;;27.85;16.30;;;2.90;99.90;;;;;;4154572;28;20044;-70
2022/12/03 02:50:58;;;;;;;31.15;17.50;;;3.00;99.90;;;;;;4153234;28;20033;-70
2022/12/03 02:53:01;;;;;;;33.88;17.58;;;3.00;99.90;;;;;;4151922;28;20461;-69
2022/12/03 02:55:05;;;;;;;30.02;17.52;;;3.00;99.90;;;;;;4150129;28;20167;-70
2022/12/03 02:57:05;;;;;;;32.25;17.90;;;3.00;99.90;;;;;;4151474;28;20160;-69
2022/12/03 02:59:06;;;;;;;33.13;18.10;;;3.00;99.90;;;;;;4139256;28;20477;-70
2022/12/03 03:01:08;;;;;;;43.72;18.67;;;3.00;99.90;;;;;;4146553;28;20045;-70
2022/12/03 03:03:09;;;;;;;34.90;18.00;;;2.90;99.90;;;;;;4148490;28;20053;-70
2022/12/03 03:05:11;;;;;;;38.30;19.63;;;2.90;99.90;;;;;;4145183;28;20297;-70
2022/12/03 03:07:12;;;;;;;33.88;18.40;;;3.00;99.90;;;;;;4143801;28;20037;-69
2022/12/03 03:09:12;;;;;;;30.52;17.17;;;3.00;99.90;;;;;;4151908;28;20053;-69
2022/12/03 03:11:13;;;;;;;35.00;19.05;;;3.00;99.90;;;;;;4149956;28;20064;-70
2022/12/03 03:13:15;;;;;;;32.55;18.85;;;2.90;99.90;;;;;;4153872;28;20038;-70
2022/12/03 03:15:16;;;;;;;32.90;17.40;;;2.90;99.90;;;;;;4156506;28;20460;-70
2022/12/03 03:17:17;;;;;;;34.00;18.45;;;2.90;99.90;;;;;;4158941;28;20041;-70
2022/12/03 03:19:17;;;;;;;36.70;19.15;;;2.80;99.90;;;;;;4151387;28;20030;-70
2022/12/03 03:21:18;;;;;;;36.35;18.63;;;2.90;99.90;;;;;;4150772;28;20041;-70
2022/12/03 03:23:21;;;;;;;32.72;17.45;;;2.90;99.90;;;;;;4151322;28;20499;-70
2022/12/03 03:25:23;;;;;;;30.15;16.45;;;2.90;99.90;;;;;;4150539;28;20038;-70
2022/12/03 03:27:24;;;;;;;31.48;18.02;;;3.00;99.90;;;;;;4144664;28;20038;-70
2022/12/03 03:29:24;;;;;;;34.20;19.00;;;2.90;99.90;;;;;;4154214;28;20037;-70
2022/12/03 03:31:25;;;;;;;33.92;17.80;;;2.90;99.90;;;;;;4154250;28;20033;-70
2022/12/03 03:33:26;;;;;;;34.60;19.58;;;2.90;99.90;;;;;;4161119;28;20140;-70
2022/12/03 03:35:27;;;;;;;31.40;17.45;;;2.90;99.90;;;;;;4155606;28;20054;-69
2022/12/03 03:37:28;;;;;;;36.20;18.90;;;2.90;99.90;;;;;;4156717;28;20065;-69
2022/12/03 03:39:28;;;;;;;34.58;18.55;;;2.80;99.90;;;;;;4148062;28;20081;-69
2022/12/03 03:41:30;;;;;;;35.25;18.75;;;2.80;99.90;;;;;;4157357;28;20030;-70
2022/12/03 03:43:33;;;;;;;35.22;18.77;;;2.80;99.90;;;;;;4157372;28;20057;-70
2022/12/03 03:45:34;;;;;;;34.17;17.92;;;2.80;99.90;;;;;;4149190;28;20049;-69
2022/12/03 03:47:35;;;;;;;33.90;17.98;;;2.80;99.90;;;;;;4156213;28;20037;-69
2022/12/03 03:49:36;;;;;;;40.05;20.25;;;2.90;99.90;;;;;;4155404;28;20033;-69
2022/12/03 03:51:37;;;;;;;37.05;19.77;;;2.80;99.90;;;;;;4157681;28;20092;-69
2022/12/03 03:53:41;;;;;;;38.83;19.30;;;2.80;99.90;;;;;;4156322;28;20029;-71
2022/12/03 03:55:42;;;;;;;34.03;18.75;;;2.80;99.90;;;;;;4151647;28;20033;-70
2022/12/03 03:57:43;;;;;;;34.65;17.73;;;2.80;99.90;;;;;;4149704;28;20044;-70
2022/12/03 03:59:43;;;;;;;36.60;19.25;;;2.80;99.90;;;;;;4154346;28;20045;-70
2022/12/03 04:01:44;;;;;;;35.95;18.55;;;2.80;99.90;;;;;;4146994;28;20034;-70
2022/12/03 04:03:45;;;;;;;36.97;18.70;;;2.80;99.90;;;;;;4134938;28;20037;-70
2022/12/03 04:05:46;;;;;;;39.88;19.60;;;2.80;99.90;;;;;;4148744;28;20041;-69
2022/12/03 04:07:47;;;;;;;38.80;18.75;;;2.70;99.90;;;;;;4147895;28;20075;-70
2022/12/03 04:09:47;;;;;;;34.65;18.05;;;2.70;99.90;;;;;;4153300;28;20379;-71
2022/12/03 04:14:07;;;;;;;38.97;19.25;;;2.80;99.90;;;;;;4156807;28;20049;-69
2022/12/03 04:16:08;;;;;;;37.75;19.35;;;2.70;99.90;;;;;;4155545;28;20036;-72
2022/12/03 04:20:27;;;;;;;35.97;17.80;;;2.70;99.90;;;;;;4142415;28;20038;-70
2022/12/03 04:22:40;;;;;;;35.33;18.40;;;2.80;99.90;;;;;;4148468;28;20520;-70
2022/12/03 04:24:40;;;;;;;38.15;18.55;;;2.80;99.90;;;;;;4153313;28;20042;-69
2022/12/03 04:29:00;;;;;;;32.08;17.33;;;2.80;99.90;;;;;;4154147;28;20673;-69
2022/12/03 04:35:41;;;;;;;36.03;18.00;;;2.80;99.90;;;;;;4146692;28;20034;-69
2022/12/03 04:35:41;;;;;;;40.70;19.75;;;2.80;99.90;;;;;;4145308;28;20053;-69
2022/12/03 04:37:41;;;;;;;39.83;20.52;;;2.80;99.90;;;;;;4150547;28;20463;-70
2022/12/03 04:39:42;;;;;;;38.85;19.33;;;2.70;99.90;;;;;;4146493;28;20041;-70
2022/12/03 04:41:43;;;;;;;36.97;18.88;;;2.80;99.90;;;;;;4145465;28;20056;-69
2022/12/03 04:46:02;;;;;;;42.70;20.48;;;2.80;99.90;;;;;;4146244;28;20473;-70
2022/12/03 04:48:03;;;;;;;37.85;18.13;;;2.80;99.90;;;;;;4148525;28;20089;-70
2022/12/03 04:50:05;;;;;;;38.83;18.75;;;2.80;99.90;;;;;;4149540;28;20045;-73
2022/12/03 04:52:06;;;;;;;38.60;19.55;;;2.80;99.90;;;;;;4149036;28;20032;-69
2022/12/03 04:54:06;;;;;;;36.65;18.95;;;2.80;99.90;;;;;;4149139;28;20077;-69
2022/12/03 04:56:07;;;;;;;43.78;19.85;;;2.80;99.90;;;;;;4149357;28;20069;-69
2022/12/03 04:58:08;;;;;;;36.22;18.38;;;2.80;99.90;;;;;;4146082;28;20056;-69
2022/12/03 05:00:10;;;;;;;41.20;19.65;;;2.80;99.90;;;;;;4149767;28;20481;-71
2022/12/03 05:02:10;;;;;;;33.03;17.45;;;2.80;99.90;;;;;;4145669;28;20042;-71
2022/12/03 05:04:12;;;;;;;38.95;18.35;;;2.90;99.90;;;;;;4147318;28;20029;-69
2022/12/03 05:06:13;;;;;;;43.80;20.60;;;2.90;99.90;;;;;;4148146;28;20037;-70
2022/12/03 05:08:13;;;;;;;38.97;17.67;;;2.90;99.90;;;;;;4149548;28;20449;-70
2022/12/03 05:10:14;;;;;;;37.60;17.88;;;2.90;99.90;;;;;;4145895;28;20026;-70
2022/12/03 05:12:14;;;;;;;38.63;18.00;;;2.90;99.90;;;;;;4148775;28;20064;-69
2022/12/03 05:14:15;;;;;;;39.20;18.52;;;2.90;99.90;;;;;;4150017;28;20053;-71
2022/12/03 05:16:16;;;;;;;44.05;20.17;;;2.90;99.90;;;;;;4143602;28;20053;-69
2022/12/03 05:18:16;;;;;;;39.70;19.42;;;2.90;99.90;;;;;;4146254;28;20445;-69
2022/12/03 05:22:36;;;;;;;42.88;19.10;;;2.90;99.90;;;;;;4147100;28;20052;-70
2022/12/03 05:24:37;;;;;;;42.78;19.42;;;2.90;99.90;;;;;;4148963;28;20069;-69
2022/12/03 05:26:37;;;;;;;39.30;19.05;;;2.90;99.90;;;;;;4146045;28;20030;-69
2022/12/03 05:28:38;;;;;;;48.33;20.20;;;2.80;99.90;;;;;;4141174;28;20392;-70
2022/12/03 05:30:39;;;;;;;41.05;17.75;;;2.80;99.90;;;;;;4142551;28;20040;-69
2022/12/03 05:32:39;;;;;;;42.05;19.40;;;2.80;99.90;;;;;;4149563;28;20100;-69
2022/12/03 05:34:40;;;;;;;41.70;19.45;;;2.80;99.90;;;;;;4148572;28;20452;-70
2022/12/03 05:36:40;;;;;;;39.92;18.42;;;2.80;99.90;;;;;;4148534;28;20056;-69
2022/12/03 05:38:41;;;;;;;40.38;19.30;;;2.70;99.90;;;;;;4149158;28;20396;-69
2022/12/03 05:40:41;;;;;;;50.15;21.35;;;2.80;99.90;;;;;;4143413;28;20491;-69
2022/12/03 05:42:55;;;;;;;42.63;19.80;;;2.70;99.90;;;;;;4145710;28;20381;-69
2022/12/03 05:44:56;;;;;;;39.90;17.63;;;2.80;99.90;;;;;;4129887;28;20121;-70
2022/12/03 05:46:57;;;;;;;43.35;19.88;;;2.80;99.90;;;;;;4147172;28;20511;-70
2022/12/03 05:48:57;;;;;;;41.72;18.30;;;2.70;99.90;;;;;;4148566;28;20116;-70
2022/12/03 05:50:58;;;;;;;41.72;18.35;;;2.70;99.90;;;;;;4149357;28;20034;-69
2022/12/03 05:52:59;;;;;;;43.08;20.45;;;2.70;99.90;;;;;;4145789;28;20036;-69
2022/12/03 05:54:59;;;;;;;39.65;19.00;;;2.70;99.90;;;;;;4146311;28;20049;-70
2022/12/03 05:57:00;;;;;;;44.92;19.95;;;2.60;99.90;;;;;;4154991;28;20537;-69
2022/12/03 05:59:00;;;;;;;44.70;19.27;;;2.60;99.90;;;;;;4159964;28;20041;-69
2022/12/03 06:01:01;;;;;;;46.28;18.23;;;2.60;99.90;;;;;;4152420;28;20063;-69
2022/12/03 06:03:02;;;;;;;39.40;19.20;;;2.60;99.90;;;;;;4154925;28;20030;-69
2022/12/03 06:05:03;;;;;;;42.92;20.13;;;2.60;99.90;;;;;;4150289;28;20423;-72
2022/12/03 06:07:03;;;;;;;43.55;19.67;;;2.60;99.90;;;;;;4149878;28;20417;-70
2022/12/03 06:09:04;;;;;;;45.30;18.98;;;2.50;99.90;;;;;;4155873;28;20039;-71
2022/12/03 06:11:04;;;;;;;43.63;18.95;;;2.60;99.90;;;;;;4143636;28;20034;-70
2022/12/03 06:13:05;;;;;;;44.92;19.98;;;2.60;99.90;;;;;;4155034;28;20034;-70
2022/12/03 06:15:07;;;;;;;42.85;19.58;;;2.50;99.90;;;;;;4146313;28;20046;-69
2022/12/03 06:17:08;;;;;;;42.80;19.92;;;2.60;99.90;;;;;;4146935;28;20104;-69
2022/12/03 06:19:08;;;;;;;41.50;18.45;;;2.60;99.90;;;;;;4153113;28;20044;-72
2022/12/03 06:21:09;;;;;;;46.78;20.52;;;2.60;99.90;;;;;;4151751;28;20041;-70
2022/12/03 06:23:09;;;;;;;46.28;20.05;;;2.60;99.90;;;;;;4141861;28;20128;-70
2022/12/03 06:25:11;;;;;;;45.33;19.60;;;2.50;99.90;;;;;;4142347;28;20037;-70
2022/12/03 06:27:11;;;;;;;46.05;20.67;;;2.50;99.90;;;;;;4146402;28;20034;-70
2022/12/03 06:29:12;;;;;;;44.53;19.63;;;2.50;99.90;;;;;;4146557;28;20052;-70
2022/12/03 06:31:13;;;;;;;42.10;20.35;;;2.50;99.90;;;;;;4146197;28;20393;-71
2022/12/03 06:33:13;;;;;;;47.72;19.83;;;2.50;99.90;;;;;;4143189;28;20159;-70
2022/12/03 06:35:14;;;;;;;49.80;22.13;;;2.50;99.90;;;;;;4153698;28;20053;-71
2022/12/03 06:37:14;;;;;;;46.97;20.83;;;2.40;99.90;;;;;;4147481;28;20061;-70
2022/12/03 06:39:16;;;;;;;51.22;21.05;;;2.50;99.90;;;;;;4142379;28;20030;-70
2022/12/03 06:41:16;;;;;;;45.75;20.25;;;2.50;99.90;;;;;;4144327;28;20088;-71
2022/12/03 06:43:17;;;;;;;51.15;22.40;;;2.50;99.90;;;;;;4146698;28;20436;-71
2022/12/03 06:45:18;;;;;;;46.08;20.77;;;2.50;99.90;;;;;;4148462;28;21745;-71
2022/12/03 06:47:18;;;;;;;53.28;22.98;;;2.50;99.90;;;;;;4155381;28;20045;-69
2022/12/03 06:49:19;;;;;;;47.70;22.58;;;2.50;99.90;;;;;;4154335;28;20048;-71
2022/12/03 06:51:20;;;;;;;48.33;22.17;;;2.60;99.90;;;;;;4146321;28;20041;-71
2022/12/03 06:53:21;;;;;;;48.90;22.42;;;2.60;99.90;;;;;;4144153;28;20044;-71
2022/12/03 06:55:21;;;;;;;46.83;22.17;;;2.60;99.90;;;;;;4152634;28;20480;-70
2022/12/03 06:57:22;;;;;;;44.58;21.30;;;2.60;99.90;;;;;;4151521;28;20497;-71
2022/12/03 06:59:22;;;;;;;49.05;22.65;;;2.60;99.90;;;;;;4152525;28;20117;-71
2022/12/03 07:01:23;;;;;;;50.53;21.67;;;2.60;99.90;;;;;;4146033;28;20042;-71
2022/12/03 07:03:23;;;;;;;43.17;19.73;;;2.60;99.90;;;;;;4146090;28;20034;-71
2022/12/03 07:05:24;;;;;;;50.60;22.42;;;2.70;99.90;;;;;;4140638;28;20056;-71
2022/12/03 07:07:25;;;;;;;44.65;20.98;;;2.70;99.90;;;;;;4147308;28;20046;-72
2022/12/03 07:09:25;;;;;;;48.95;21.75;;;2.70;99.90;;;;;;4146044;28;20029;-71
2022/12/03 07:11:38;;;;;;;49.65;20.48;;;2.70;99.90;;;;;;4150740;28;20525;-71
2022/12/03 07:13:38;;;;;;;;;;;2.70;99.90;;;;;;4153368;28;20052;-70
2022/12/03 07:15:39;;;;;;;46.13;19.48;;;2.70;99.90;;;;;;4152748;28;19921;-71
2022/12/03 07:17:40;;;;;;;46.47;20.35;;;2.80;99.90;;;;;;4146678;28;20038;-71
2022/12/03 07:19:40;;;;;;;47.42;20.98;;;2.70;99.90;;;;;;4154887;28;20032;-70
2022/12/03 07:21:41;;;;;;;38.88;18.35;;;2.80;99.90;;;;;;4154266;28;20562;-70
2022/12/03 07:23:41;;;;;;;44.60;19.35;;;2.80;99.90;;;;;;4145051;28;20145;-71
2022/12/03 07:25:42;;;;;;;51.75;21.20;;;2.80;99.90;;;;;;4145058;28;20400;-71
2022/12/03 07:27:42;;;;;;;42.35;18.70;;;2.80;99.90;;;;;;4145562;28;20105;-69
2022/12/03 07:29:43;;;;;;;42.83;19.50;;;2.80;99.90;;;;;;4143366;28;20034;-70
2022/12/03 07:31:44;;;;;;;38.03;19.63;;;2.80;99.90;;;;;;4148269;28;20042;-70
2022/12/03 07:33:44;;;;;;;42.67;20.83;;;2.80;99.90;;;;;;4152279;28;20041;-69
2022/12/03 07:35:45;;;;;;;47.67;21.67;;;2.80;99.90;;;;;;4148982;28;20485;-70
2022/12/03 07:37:45;;;;;;;43.72;19.63;;;2.70;99.90;;;;;;4153301;28;20069;-69
2022/12/03 07:39:46;;;;;;;45.00;20.88;;;2.70;99.90;;;;;;4156514;28;20083;-70
2022/12/03 07:41:47;;;;;;;43.35;19.92;;;2.70;99.90;;;;;;4154453;28;20158;-70
2022/12/03 07:43:47;;;;;;;39.45;19.10;;;2.60;99.90;;;;;;4147599;28;20034;-70
2022/12/03 07:45:48;;;;;;;44.90;20.70;;;2.70;99.90;;;;;;4147069;28;20484;-69
2022/12/03 07:47:48;;;;;;;41.03;19.23;;;2.60;99.90;;;;;;4146611;28;20042;-70
2022/12/03 07:49:49;;;;;;;45.85;19.88;;;2.60;99.90;;;;;;4153508;28;20029;-70
2022/12/03 07:51:53;;;;;;;47.80;21.00;;;2.60;99.90;;;;;;4151978;28;20483;-70
2022/12/03 07:53:53;;;;;;;44.13;20.38;;;2.60;99.90;;;;;;4150921;28;20048;-70
2022/12/03 07:55:54;;;;;;;47.53;20.60;;;2.50;99.90;;;;;;4147053;28;20125;-69
2022/12/03 07:57:54;;;;;;;46.10;20.42;;;2.60;99.90;;;;;;4153871;28;20048;-70
2022/12/03 07:59:55;;;;;;;45.88;20.20;;;2.50;99.90;;;;;;4153521;28;20061;-70
2022/12/03 08:01:55;;;;;;;39.30;19.05;;;2.60;99.90;;;;;;4151252;28;20477;-70
2022/12/03 08:03:56;;;;;;;41.00;19.63;;;2.60;99.90;;;;;;4150460;28;20041;-69
2022/12/03 08:05:57;;;;;;;41.80;18.23;;;2.60;99.90;;;;;;4149716;28;20075;-69
2022/12/03 08:07:57;;;;;;;41.30;18.55;;;2.70;99.90;;;;;;4145175;28;20038;-69
2022/12/03 08:09:58;;;;;;;41.72;19.23;;;2.70;99.90;;;;;;4150272;28;20033;-70
2022/12/03 08:12:05;;;;;;;43.97;20.25;;;2.70;99.90;;;;;;4151562;28;20041;-69
2022/12/03 08:14:17;;;;;;;42.22;19.73;;;2.60;99.90;;;;;;4148598;28;20062;-69
2022/12/03 08:16:19;;;;;;;51.50;19.90;;;2.70;99.90;;;;;;4152969;28;20041;-69
2022/12/03 08:18:21;;;;;;;45.08;19.70;;;2.70;99.90;;;;;;4152413;28;20045;-69
2022/12/03 08:20:24;;;;;;;40.58;18.98;;;2.70;99.90;;;;;;4144939;28;20037;-69
2022/12/03 08:22:25;;;;;;;45.03;20.08;;;2.70;99.90;;;;;;4154179;28;20481;-69
2022/12/03 08:24:25;;;;;;;41.60;18.13;;;2.70;99.90;;;;;;4155666;28;20036;-69
2022/12/03 08:26:27;;;;;;;41.42;18.70;;;2.70;99.90;;;;;;4154986;28;20092;-69
2022/12/03 08:28:28;;;;;;;46.58;20.90;;;2.80;99.90;;;;;;4161082;28;20091;-70
2022/12/03 08:30:28;;;;;;;47.30;21.38;;;2.70;99.90;;;;;;4153576;28;20061;-69
2022/12/03 08:32:30;;;;;;;46.00;20.23;;;2.60;99.90;;;;;;4149923;28;20101;-70
2022/12/03 08:34:39;;;;;;;48.75;20.85;;;2.60;99.90;;;;;;4155315;28;20040;-69
2022/12/03 08:36:40;;;;;;;42.35;19.17;;;2.60;99.90;;;;;;4157238;28;20405;-69
2022/12/03 08:38:48;;;;;;;42.05;19.25;;;2.60;99.90;;;;;;4151544;28;20038;-69
2022/12/03 08:40:51;;;;;;;44.67;20.42;;;2.60;99.90;;;;;;4151486;28;20037;-69
2022/12/03 08:42:51;;;;;;;45.03;20.70;;;2.60;99.90;;;;;;4158379;28;20033;-69
2022/12/03 08:44:53;;;;;;;44.35;20.35;;;2.50;99.90;;;;;;4157177;28;21079;-70
2022/12/03 08:47:06;;;;;;;46.92;21.58;;;2.50;99.90;;;;;;4136555;28;20090;-69
2022/12/03 08:49:08;;;;;;;43.42;20.65;;;2.50;99.90;;;;;;4153337;28;20473;-70
2022/12/03 08:51:24;;;;;;;44.88;19.90;;;2.40;99.90;;;;;;4152146;28;20041;-70
2022/12/03 08:53:29;;;;;;;51.47;20.48;;;2.50;99.90;;;;;;4161230;28;20120;-69
2022/12/03 08:55:37;;;;;;;48.05;21.13;;;2.50;99.90;;;;;;4154735;28;20504;-69
2022/12/03 08:57:42;;;;;;;43.50;19.75;;;2.50;99.90;;;;;;4150317;28;20078;-69
2022/12/03 08:59:42;;;;;;;44.10;20.35;;;2.60;99.90;;;;;;4146150;28;20048;-69
2022/12/03 09:01:45;;;;;;;44.38;20.45;;;2.60;99.90;;;;;;4154730;28;20041;-69
2022/12/03 09:03:51;;;;;;;42.70;19.98;;;2.50;99.90;;;;;;4158531;28;20033;-69
2022/12/03 09:05:51;;;;;;;40.47;18.67;;;2.50;99.90;;;;;;4157191;28;20385;-69
2022/12/03 09:07:52;;;;;;;47.00;20.20;;;2.50;99.90;;;;;;4149915;28;20029;-69
2022/12/03 09:09:53;;;;;;;41.38;19.42;;;2.50;99.90;;;;;;4153880;28;20088;-69
2022/12/03 09:11:54;;;;;;;44.50;18.40;;;2.50;99.90;;;;;;4152127;28;20057;-69
2022/12/03 09:13:54;;;;;;;39.33;19.27;;;2.60;99.90;;;;;;4151818;28;20492;-69
2022/12/03 09:15:55;;;;;;;38.25;18.15;;;2.50;99.90;;;;;;4150143;28;20044;-69
2022/12/03 09:17:56;;;;;;;35.28;17.35;;;2.60;99.90;;;;;;4155123;28;20041;-69
2022/12/03 09:19:56;;;;;;;39.42;18.52;;;2.60;99.90;;;;;;4156687;28;20038;-69
2022/12/03 09:21:57;;;;;;;41.50;18.73;;;2.60;99.90;;;;;;4149883;28;20045;-70
2022/12/03 09:23:57;;;;;;;33.65;16.65;;;2.60;99.90;;;;;;4154626;28;20049;-69
2022/12/03 09:25:58;;;;;;;36.38;16.77;;;2.70;99.90;;;;;;4156262;28;20053;-69
2022/12/03 09:27:59;;;;;;;36.20;17.27;;;2.70;99.90;;;;;;4154509;28;20042;-72
2022/12/03 09:29:59;;;;;;;37.80;17.85;;;2.70;99.90;;;;;;4149910;28;20094;-70
2022/12/03 09:32:00;;;;;;;37.25;16.00;;;2.70;99.90;;;;;;4152523;28;20468;-69
2022/12/03 09:34:01;;;;;;;37.50;17.80;;;2.70;99.90;;;;;;4155053;28;20033;-69
2022/12/03 09:36:02;;;;;;;39.22;16.55;;;2.70;99.90;;;;;;4149841;28;20084;-69
2022/12/03 09:38:03;;;;;;;35.03;16.63;;;2.70;99.90;;;;;;4153018;28;20444;-69
2022/12/03 09:40:05;;;;;;;35.17;15.63;;;2.80;99.90;;;;;;4151909;28;20029;-70
2022/12/03 09:42:05;;;;;;;38.08;17.58;;;2.80;99.90;;;;;;4155973;28;20579;-70
2022/12/03 09:44:06;;;;;;;35.47;17.92;;;2.80;99.90;;;;;;4150642;28;20046;-70
2022/12/03 09:46:07;;;;;;;38.40;17.15;;;2.80;99.90;;;;;;4159995;28;20025;-70
2022/12/03 09:48:08;;;;;;;36.42;17.50;;;2.80;99.90;;;;;;4156913;28;20037;-69
2022/12/03 09:50:15;;;;;;;36.78;17.25;;;2.80;99.90;;;;;;4153431;28;20041;-70
2022/12/03 09:52:36;;;;;;;33.90;16.10;;;2.80;99.90;;;;;;4151488;28;20037;-70
2022/12/03 09:54:37;;;;;;;38.38;17.55;;;2.90;99.90;;;;;;4134928;28;20039;-70
2022/12/03 09:56:38;;;;;;;32.42;15.80;;;2.90;99.90;;;;;;4152201;28;20026;-69
2022/12/03 09:58:39;;;;;;;37.75;16.80;;;2.90;99.90;;;;;;4153610;28;20507;-70
2022/12/03 10:00:42;;;;;;;36.85;17.27;;;3.00;99.90;;;;;;4148481;28;20432;-70
2022/12/03 10:02:43;;;;;;;37.28;16.77;;;3.10;99.90;;;;;;4153193;28;20041;-70
2022/12/03 10:04:44;;;;;;;41.38;18.80;;;3.10;99.90;;;;;;4139192;28;20070;-70
2022/12/03 10:06:45;;;;;;;33.17;16.48;;;3.10;99.90;;;;;;4143397;28;20046;-70
2022/12/03 10:08:48;;;;;;;36.53;17.83;;;3.00;99.90;;;;;;4148645;28;20034;-69
2022/12/03 10:10:53;;;;;;;36.20;17.50;;;3.00;99.90;;;;;;4153982;28;20061;-70
2022/12/03 10:12:54;;;;;;;44.85;18.88;;;3.10;99.90;;;;;;4147836;28;20877;-70
2022/12/03 10:14:54;;;;;;;33.67;17.13;;;3.00;99.90;;;;;;4145678;28;20095;-69
2022/12/03 10:16:55;;;;;;;43.67;19.40;;;3.00;99.90;;;;;;4153457;28;20072;-70
2022/12/03 10:18:59;;;;;;;40.25;18.63;;;2.90;99.90;;;;;;4144929;28;20044;-70
2022/12/03 10:21:00;;;;;;;40.95;19.73;;;3.00;99.90;;;;;;4142049;28;20038;-70
2022/12/03 10:23:00;;;;;;;41.35;20.17;;;3.00;99.90;;;;;;4156212;28;20026;-69
2022/12/03 10:25:19;;;;;;;40.20;20.10;;;2.90;99.90;;;;;;4153854;28;20083;-70
2022/12/03 10:27:29;;;;;;;43.45;20.13;;;2.90;99.90;;;;;;4149244;28;20039;-69
2022/12/03 10:29:34;;;;;;;44.92;20.85;;;2.90;99.90;;;;;;4143859;28;20045;-70
2022/12/03 10:31:35;;;;;;;44.67;20.33;;;2.90;99.90;;;;;;4147353;28;20077;-69
2022/12/03 10:33:38;;;;;;;45.70;20.13;;;2.90;99.90;;;;;;4149722;28;20045;-70
2022/12/03 10:35:40;;;;;;;46.63;21.13;;;2.90;99.90;;;;;;4153010;28;20048;-69
2022/12/03 10:37:58;;;;;;;39.55;19.77;;;2.90;99.90;;;;;;4154149;28;20053;-69
2022/12/03 10:40:20;;;;;;;38.65;18.05;;;2.90;99.90;;;;;;4143633;28;20038;-70
2022/12/03 10:42:21;;;;;;;39.92;18.05;;;2.90;99.90;;;;;;4124566;28;20554;-69